Time;durP1;ratioP1;P1;durP2;ratioP2;P2;SDS_P1;SDS_P2;PMS_P1;PMS_P2;Temp;Humidity;BMP_temperature;BMP_pressure;BME280_temperature;BME280_humidity;BME280_pressure;Samples;Min_cycle;Max_cycle;Signal;HPM_P1;HPM_P2
2023/06/07 00:03:26;;;;;;;4.80;3.70;;;;;;;17.63;41.98;99985.44;10337585;28;20241;-67
2023/06/07 00:08:29;;;;;;;4.53;3.20;;;;;;;17.04;43.20;99971.47;10339738;28;20240;-64
2023/06/07 00:13:31;;;;;;;3.67;3.20;;;;;;;17.53;43.03;99987.81;10353108;28;20316;-66
2023/06/07 00:18:33;;;;;;;7.43;3.60;;;;;;;16.80;44.59;99975.78;10351147;28;20886;-66
2023/06/07 00:23:35;;;;;;;5.10;3.30;;;;;;;15.67;45.81;99928.75;10348397;28;20292;-66
2023/06/07 00:28:37;;;;;;;5.00;3.20;;;;;;;18.10;42.92;99960.44;10344995;28;20240;-66
2023/06/07 00:33:38;;;;;;;5.40;3.53;;;;;;;17.09;43.99;99990.56;10348337;28;20726;-67
2023/06/07 00:38:40;;;;;;;4.57;3.33;;;;;;;17.02;45.03;99988.94;10348586;28;20244;-67
2023/06/07 00:43:44;;;;;;;4.10;3.47;;;;;;;17.02;45.30;99989.75;10345883;28;20233;-66
2023/06/07 00:48:48;;;;;;;3.67;3.07;;;;;;;17.62;44.62;99986.44;10350198;28;20229;-66
2023/06/07 00:53:52;;;;;;;5.87;3.33;;;;;;;17.60;44.60;99985.84;10340793;28;20981;-66
2023/06/07 00:58:54;;;;;;;3.87;3.47;;;;;;;17.19;45.37;99992.72;10350085;28;20237;-68
2023/06/07 01:03:57;;;;;;;5.90;3.70;;;;;;;17.21;46.40;99993.34;10349515;28;20237;-67
2023/06/07 01:08:59;;;;;;;4.37;3.93;;;;;;;16.01;47.97;99988.78;10351320;28;20245;-67
2023/06/07 01:14:02;;;;;;;4.17;3.40;;;;;;;16.91;46.67;99999.41;10346303;28;20237;-67
2023/06/07 01:19:05;;;;;;;5.30;3.47;;;;;;;16.59;46.83;99994.06;10348647;28;20287;-67
2023/06/07 01:24:09;;;;;;;4.67;3.90;;;;;;;16.68;47.17;99991.91;10340842;28;20233;-67
2023/06/07 01:29:12;;;;;;;5.00;3.20;;;;;;;16.72;46.63;99995.84;10347363;28;20320;-66
2023/06/07 01:34:14;;;;;;;6.73;3.60;;;;;;;15.32;49.17;99981.13;10343677;28;20795;-66
2023/06/07 01:39:19;;;;;;;3.60;3.30;;;;;;;15.12;49.65;99978.47;10344275;28;20236;-67
2023/06/07 01:44:21;;;;;;;4.67;4.00;;;;;;;16.47;48.01;100003.91;10343263;28;20889;-67
2023/06/07 01:49:23;;;;;;;3.80;3.40;;;;;;;15.87;48.84;100009.59;10371547;28;20230;-67
2023/06/07 01:54:24;;;;;;;3.93;3.40;;;;;;;15.68;48.64;100014.03;10385886;28;20284;-67
2023/06/07 01:59:35;;;;;;;4.57;3.40;;;;;;;16.72;47.39;100005.78;10388778;28;20749;-67
2023/06/07 02:04:41;;;;;;;4.60;3.40;;;;;;;16.39;47.50;100020.38;10388120;28;20290;-67
2023/06/07 02:09:46;;;;;;;5.20;3.47;;;;;;;15.87;49.01;100013.13;10387945;28;20314;-67
2023/06/07 02:14:52;;;;;;;4.27;3.70;;;;;;;16.34;47.45;100015.63;10382971;28;20239;-67
2023/06/07 02:19:55;;;;;;;3.90;3.40;;;;;;;17.19;47.00;100003.53;10383919;28;20418;-67
2023/06/07 02:24:56;;;;;;;6.37;3.40;;;;;;;15.93;48.64;100029.53;10384838;28;20228;-66
2023/06/07 02:29:58;;;;;;;3.93;3.33;;;;;;;15.81;48.72;100026.66;10386094;28;20840;-67
2023/06/07 02:35:00;;;;;;;4.90;3.60;;;;;;;15.78;49.50;100022.50;10344443;28;20253;-67
2023/06/07 02:40:06;;;;;;;4.40;3.67;;;;;;;16.11;48.94;100007.22;10334956;28;20236;-67
2023/06/07 02:45:08;;;;;;;3.90;3.50;;;;;;;15.61;48.90;100032.94;10333624;28;20262;-67
2023/06/07 02:50:10;;;;;;;3.40;3.10;;;;;;;17.27;46.71;100015.94;10377795;28;20233;-67
2023/06/07 02:55:12;;;;;;;4.27;3.53;;;;;;;16.64;48.28;100016.91;10382708;28;20623;-64
2023/06/07 03:00:14;;;;;;;3.97;3.50;;;;;;;15.67;48.67;100039.34;10385899;28;20295;-66
2023/06/07 03:05:17;;;;;;;4.27;3.43;;;;;;;16.50;47.94;100027.78;10340312;28;20762;-66
2023/06/07 03:10:19;;;;;;;4.30;3.90;;;;;;;16.22;48.96;100036.22;10340155;28;20241;-67
2023/06/07 03:15:21;;;;;;;4.17;3.30;;;;;;;15.85;49.24;100046.78;10339861;28;20245;-66
2023/06/07 03:20:22;;;;;;;6.03;3.30;;;;;;;15.44;50.15;100037.94;10383333;28;20282;-66
2023/06/07 03:25:24;;;;;;;3.87;3.47;;;;;;;15.76;49.45;100038.09;10384392;28;20783;-66
2023/06/07 03:30:26;;;;;;;4.77;3.23;;;;;;;15.67;49.57;100050.16;10379195;28;20226;-65
2023/06/07 03:35:27;;;;;;;5.03;3.40;;;;;;;16.41;48.53;100048.00;10337424;28;20244;-65
2023/06/07 03:40:29;;;;;;;4.57;3.13;;;;;;;16.34;49.42;100041.81;10337337;28;20233;-64
2023/06/07 03:45:31;;;;;;;4.83;3.27;;;;;;;15.69;49.94;100059.69;10348881;28;20269;-64
2023/06/07 03:50:34;;;;;;;3.97;3.03;;;;;;;15.27;49.73;100056.44;10344876;28;20252;-65
2023/06/07 03:55:37;;;;;;;5.00;3.40;;;;;;;16.13;48.11;100078.00;10341709;28;20299;-66
2023/06/07 04:00:39;;;;;;;3.90;3.60;;;;;;;15.56;49.97;100070.50;10357196;28;20245;-66
2023/06/07 04:05:40;;;;;;;4.57;3.40;;;;;;;15.45;49.94;100063.88;10348275;28;20237;-66
2023/06/07 04:10:42;;;;;;;3.57;3.27;;;;;;;15.46;49.96;100068.22;10350015;28;20252;-66
2023/06/07 04:15:44;;;;;;;5.67;3.63;;;;;;;15.84;48.99;100067.53;10338104;28;20239;-65
2023/06/07 04:20:46;;;;;;;4.47;3.60;;;;;;;15.51;49.90;100060.31;10340630;28;20288;-66
2023/06/07 04:25:49;;;;;;;3.73;3.43;;;;;;;16.33;49.00;100053.63;10341405;28;20229;-67
2023/06/07 04:30:51;;;;;;;3.60;3.27;;;;;;;16.63;48.69;100061.97;10342013;28;20240;-66
2023/06/07 04:35:58;;;;;;;5.47;3.63;;;;;;;15.83;49.88;100071.28;10351045;28;20893;-67
2023/06/07 04:41:06;;;;;;;4.80;3.60;;;;;;;15.13;51.02;100076.31;10387477;28;20278;-67
2023/06/07 04:46:09;;;;;;;4.70;3.67;;;;;;;16.47;49.76;100074.13;10369364;28;20233;-66
2023/06/07 04:51:13;;;;;;;4.20;3.47;;;;;;;16.12;50.38;100074.47;10353544;28;20915;-67
2023/06/07 04:56:15;;;;;;;3.93;3.47;;;;;;;15.08;51.46;100076.13;10383095;28;20332;-67
2023/06/07 05:01:17;;;;;;;4.63;3.80;;;;;;;16.37;49.96;100074.59;10347330;28;20282;-65
2023/06/07 05:06:18;;;;;;;4.80;3.70;;;;;;;15.80;50.36;100090.56;10346893;28;20283;-66
2023/06/07 05:11:20;;;;;;;4.93;3.47;;;;;;;16.01;50.15;100097.59;10335179;28;20243;-66
2023/06/07 05:16:24;;;;;;;6.33;3.53;;;;;;;16.59;49.50;100074.28;10341229;28;20233;-67
2023/06/07 05:21:26;;;;;;;4.80;3.53;;;;;;;17.11;48.98;100060.63;10346923;28;20685;-65
2023/06/07 05:26:27;;;;;;;4.73;3.73;;;;;;;17.85;47.69;100044.47;10345027;28;20838;-65
2023/06/07 05:31:30;;;;;;;4.47;3.90;;;;;;;18.34;46.26;100017.41;10361212;28;20307;-67
2023/06/07 05:36:34;;;;;;;6.23;3.73;;;;;;;17.80;46.98;100025.38;10368750;28;20234;-67
2023/06/07 05:41:37;;;;;;;4.03;3.63;;;;;;;17.08;48.57;100055.66;10340937;28;20240;-65
2023/06/07 05:46:38;;;;;;;4.67;3.60;;;;;;;18.73;46.20;100012.47;10351523;28;20256;-67
2023/06/07 05:51:40;;;;;;;6.00;3.77;;;;;;;19.76;45.55;99983.06;10344334;28;20729;-67
2023/06/07 05:56:42;;;;;;;4.47;3.30;;;;;;;18.50;47.18;100034.91;10361879;28;20228;-66
2023/06/07 06:01:44;;;;;;;4.27;3.57;;;;;;;17.25;48.69;100048.63;10373692;28;20250;-66
2023/06/07 06:06:48;;;;;;;6.57;3.60;;;;;;;17.52;48.42;100061.88;10341081;28;20263;-67
2023/06/07 06:11:50;;;;;;;7.73;3.20;;;;;;;19.32;46.49;99966.38;10336162;28;20272;-67
2023/06/07 06:16:51;;;;;;;5.80;3.40;;;;;;;20.16;45.32;99956.91;10344504;28;20347;-67
2023/06/07 06:21:53;;;;;;;3.93;3.37;;;;;;;18.43;47.47;100021.47;10355072;28;20237;-67
2023/06/07 06:26:56;;;;;;;3.50;3.20;;;;;;;19.64;46.42;99957.84;10366484;28;20236;-67
2023/06/07 06:31:59;;;;;;;3.37;3.07;;;;;;;20.65;44.66;99900.97;10380939;28;20225;-67
2023/06/07 06:37:00;;;;;;;3.80;3.13;;;;;;;20.58;44.52;99926.66;10362411;28;20795;-67
2023/06/07 06:42:02;;;;;;;4.20;3.20;;;;;;;20.40;45.14;99935.91;10334803;28;20833;-67
2023/06/07 06:47:04;;;;;;;3.30;3.00;;;;;;;20.88;44.23;99936.38;10340098;28;20283;-66
2023/06/07 06:52:06;;;;;;;3.65;3.15;;;;;;;19.32;46.29;99996.22;10344984;28;20244;-67
2023/06/07 06:57:08;;;;;;;3.55;2.90;;;;;;;20.48;45.14;99940.91;10341991;28;20241;-67
2023/06/07 07:02:10;;;;;;;4.45;3.08;;;;;;;20.85;44.89;99926.81;10361393;28;20729;-66
2023/06/07 07:07:12;;;;;;;3.22;2.97;;;;;;;19.71;46.40;99977.53;10384009;28;20252;-67
2023/06/07 07:12:14;;;;;;;2.67;2.40;;;;;;;20.82;45.46;99905.59;10385312;28;20665;-66
2023/06/07 07:17:16;;;;;;;4.15;2.85;;;;;;;19.58;46.92;99987.56;10363091;28;20239;-67
2023/06/07 07:22:18;;;;;;;5.55;3.20;;;;;;;20.41;45.25;99905.75;10348964;28;20233;-67
2023/06/07 07:27:22;;;;;;;5.28;2.70;;;;;;;20.34;44.90;99915.13;10370359;28;20247;-66
2023/06/07 07:32:24;;;;;;;2.67;2.35;;;;;;;21.19;44.37;99922.13;10353726;28;20954;-67
2023/06/07 07:37:28;;;;;;;3.58;3.03;;;;;;;19.92;45.46;99948.88;10351344;28;20697;-67
2023/06/07 07:42:29;;;;;;;2.70;2.50;;;;;;;21.40;44.01;99915.06;10368421;28;20627;-67
2023/06/07 07:47:31;;;;;;;2.97;2.50;;;;;;;21.03;44.33;99926.53;10391186;28;20699;-66
2023/06/07 07:52:33;;;;;;;5.07;4.15;;;;;;;21.49;43.85;99903.72;10378252;28;20225;-66
2023/06/07 07:57:34;;;;;;;2.67;2.47;;;;;;;21.34;43.55;99893.44;10375006;28;20260;-67
2023/06/07 08:02:36;;;;;;;3.78;2.20;;;;;;;21.57;44.26;99884.22;10351249;28;20229;-66
2023/06/07 08:07:39;;;;;;;2.92;2.70;;;;;;;21.66;44.14;99890.03;10373911;28;20247;-66
2023/06/07 08:12:41;;;;;;;5.07;2.72;;;;;;;20.68;45.05;99933.09;10388545;28;20320;-66
2023/06/07 08:17:42;;;;;;;3.55;2.28;;;;;;;21.73;43.27;99856.09;10389383;28;20294;-68
2023/06/07 08:22:44;;;;;;;3.20;2.03;;;;;;;21.99;42.43;99864.50;10394040;28;20233;-67
2023/06/07 08:27:46;;;;;;;2.45;2.22;;;;;;;22.23;42.03;99851.34;10387145;28;20244;-67
2023/06/07 08:32:48;;;;;;;2.42;2.10;;;;;;;22.06;42.06;99846.03;10389559;28;20244;-67
2023/06/07 08:37:50;;;;;;;3.13;2.28;;;;;;;21.17;43.29;99921.56;10386524;28;20825;-67
2023/06/07 08:42:51;;;;;;;2.30;2.13;;;;;;;21.88;43.50;99862.75;10363927;28;20864;-67
2023/06/07 08:47:56;;;;;;;2.15;2.00;;;;;;;21.75;42.87;99839.50;10346123;28;20241;-67
2023/06/07 08:53:05;;;;;;;2.67;2.20;;;;;;;22.10;42.06;99849.91;10347850;28;20279;-67
2023/06/07 08:58:07;;;;;;;1.80;1.70;;;;;;;21.69;42.55;99833.16;10375262;28;20313;-67
2023/06/07 09:03:11;;;;;;;4.13;2.00;;;;;;;23.06;41.32;99844.50;10382758;28;20234;-68
2023/06/07 09:08:13;;;;;;;1.70;1.60;;;;;;;22.34;41.35;99853.06;10390177;28;20236;-68
2023/06/07 09:13:21;;;;;;;2.08;1.95;;;;;;;22.83;40.85;99834.84;10355255;28;20249;-67
2023/06/07 09:18:23;;;;;;;2.15;1.80;;;;;;;23.08;41.16;99815.88;10347226;28;20232;-67
2023/06/07 09:23:25;;;;;;;2.10;1.90;;;;;;;23.93;39.79;99802.94;10346670;28;20238;-66
2023/06/07 09:28:27;;;;;;;2.03;1.83;;;;;;;23.53;39.70;99805.31;10345217;28;20763;-68
2023/06/07 09:33:30;;;;;;;1.83;1.67;;;;;;;23.63;39.01;99805.41;10370680;28;20344;-66
2023/06/07 09:38:33;;;;;;;3.17;1.88;;;;;;;22.58;39.43;99827.34;10384465;28;20672;-66
2023/06/07 09:43:46;;;;;;;2.08;1.98;;;;;;;22.69;40.61;99846.25;10357135;28;20233;-66
2023/06/07 09:48:48;;;;;;;1.88;1.70;;;;;;;23.40;38.84;99803.16;10372946;28;20232;-68
2023/06/07 09:53:56;;;;;;;1.73;1.60;;;;;;;24.03;39.10;99783.78;10385514;28;20236;-68
2023/06/07 09:59:16;;;;;;;1.50;1.40;;;;;;;24.69;38.19;99799.28;10353510;28;21120;-68
2023/06/07 10:04:18;;;;;;;2.50;1.73;;;;;;;24.42;38.36;99788.66;10380695;28;20862;-67
2023/06/07 10:09:20;;;;;;;2.05;1.85;;;;;;;23.21;38.97;99792.72;10381807;28;20329;-68
2023/06/07 10:14:28;;;;;;;2.72;1.70;;;;;;;23.74;39.28;99792.56;10385032;28;20306;-67
2023/06/07 10:19:42;;;;;;;2.65;1.67;;;;;;;23.11;39.77;99808.25;10381276;28;20235;-66
2023/06/07 10:25:08;;;;;;;2.28;2.08;;;;;;;24.55;38.37;99744.31;10381806;28;20248;-67
2023/06/07 10:30:13;;;;;;;4.60;1.80;;;;;;;24.46;38.33;99710.47;10340685;28;20230;-66
2023/06/07 10:35:17;;;;;;;2.22;1.75;;;;;;;24.93;38.03;99727.47;10349464;28;20242;-68
2023/06/07 10:40:20;;;;;;;5.07;1.90;;;;;;;23.78;38.94;99763.59;10385769;28;20697;-67
2023/06/07 10:45:22;;;;;;;2.70;1.30;;;;;;;25.45;36.57;99689.63;10380449;28;20241;-68
2023/06/07 10:50:26;;;;;;;1.70;1.60;;;;;;;24.52;38.06;99749.53;10338475;28;20257;-67
2023/06/07 10:55:33;;;;;;;1.50;1.40;;;;;;;24.49;37.94;99725.47;10337564;28;20249;-67
2023/06/07 11:06:27;;;;;;;1.60;1.50;;;;;;;24.22;38.14;99739.50;10450245;28;20868;-65
2023/06/07 11:11:40;;;;;;;2.40;1.55;;;;;;;23.82;37.81;99755.69;10447176;28;20239;-67
2023/06/07 11:16:42;;;;;;;2.22;1.70;;;;;;;24.49;37.28;99739.16;10443719;28;20239;-66
2023/06/07 11:22:15;;;;;;;2.22;1.30;;;;;;;24.61;37.35;99690.41;10454029;28;20230;-66
2023/06/07 11:27:20;;;;;;;2.63;1.70;;;;;;;25.11;36.46;99718.59;10448635;28;20816;-68
2023/06/07 11:32:22;;;;;;;1.83;1.73;;;;;;;24.25;37.07;99725.28;10453924;28;20211;-68
2023/06/07 11:37:24;;;;;;;2.30;1.85;;;;;;;23.29;38.05;99798.75;10449762;28;20308;-66
2023/06/07 11:42:26;;;;;;;2.15;1.60;;;;;;;25.29;36.39;99692.50;10446004;28;20370;-68
2023/06/07 11:47:27;;;;;;;1.83;1.70;;;;;;;25.24;36.75;99673.38;10440059;28;21072;-67
2023/06/07 11:52:29;;;;;;;2.10;1.98;;;;;;;25.07;36.00;99668.28;10447383;28;20196;-67
2023/06/07 11:57:33;;;;;;;1.85;1.75;;;;;;;25.23;36.93;99681.88;10443736;28;20232;-67
2023/06/07 12:02:39;;;;;;;2.20;2.05;;;;;;;24.85;36.99;99684.28;10441873;28;20239;-66
2023/06/07 12:07:42;;;;;;;2.22;1.80;;;;;;;24.85;37.26;99700.69;10450090;28;20671;-66
2023/06/07 12:12:44;;;;;;;2.05;1.92;;;;;;;24.57;36.75;99732.28;10444432;28;20300;-67
2023/06/07 12:17:46;;;;;;;2.10;2.00;;;;;;;25.26;36.23;99681.31;10424714;28;20256;-67
2023/06/07 12:22:48;;;;;;;2.35;2.15;;;;;;;25.60;35.52;99631.16;10417493;28;20298;-66
2023/06/07 12:27:50;;;;;;;2.15;2.05;;;;;;;24.66;35.35;99675.88;10421045;28;20232;-67
2023/06/07 12:32:57;;;;;;;3.63;2.45;;;;;;;26.20;35.83;99639.81;10421503;28;20597;-65
2023/06/07 12:37:59;;;;;;;3.58;2.65;;;;;;;25.10;35.85;99650.44;10417482;28;20212;-66
2023/06/07 12:43:00;;;;;;;2.38;2.15;;;;;;;25.50;35.63;99628.53;10415993;28;20270;-67
2023/06/07 12:48:03;;;;;;;3.47;2.60;;;;;;;24.90;35.53;99662.38;10418801;28;20907;-66
2023/06/07 12:53:05;;;;;;;3.58;2.60;;;;;;;25.22;36.26;99647.38;10406738;28;20204;-67
2023/06/07 12:58:07;;;;;;;3.03;2.30;;;;;;;25.45;35.56;99640.34;10421193;28;20242;-67
2023/06/07 13:03:09;;;;;;;2.53;2.33;;;;;;;26.28;34.38;99604.66;10409618;28;20244;-66
2023/06/07 13:08:13;;;;;;;4.38;2.20;;;;;;;24.93;35.44;99664.53;10422076;28;20637;-67
2023/06/07 13:13:14;;;;;;;4.40;2.10;;;;;;;25.63;35.65;99627.84;10417685;28;20651;-67
2023/06/07 13:18:17;;;;;;;4.13;2.65;;;;;;;25.92;34.39;99599.59;10411444;28;20597;-67
2023/06/07 13:23:18;;;;;;;3.13;2.83;;;;;;;25.39;36.00;99630.53;10421845;28;20231;-67
2023/06/07 13:28:20;;;;;;;3.28;2.80;;;;;;;27.04;34.13;99556.06;10413631;28;20665;-65
2023/06/07 13:33:22;;;;;;;4.43;2.67;;;;;;;26.37;34.03;99564.50;10415968;28;20286;-69
2023/06/07 13:38:23;;;;;;;2.80;2.60;;;;;;;25.28;35.47;99651.72;10417043;28;20215;-69
2023/06/07 13:43:26;;;;;;;2.53;2.17;;;;;;;25.93;34.63;99595.72;10416990;28;20232;-66
2023/06/07 13:48:48;;;;;;;2.60;2.40;;;;;;;26.78;33.74;99549.38;10411033;28;20814;-67
2023/06/07 13:53:50;;;;;;;2.60;2.40;;;;;;;26.09;34.37;99561.53;10415883;28;20596;-67
2023/06/07 13:58:51;;;;;;;2.45;2.25;;;;;;;25.34;34.00;99628.66;10424902;28;20314;-66
2023/06/07 14:03:58;;;;;;;2.70;2.50;;;;;;;25.05;35.16;99626.69;10415815;28;20237;-67
2023/06/07 14:09:00;;;;;;;2.72;2.53;;;;;;;25.58;35.29;99608.72;10423547;28;20286;-66
2023/06/07 14:14:02;;;;;;;3.47;2.47;;;;;;;26.55;34.15;99533.50;10414686;28;20274;-66
2023/06/07 14:19:04;;;;;;;3.42;2.60;;;;;;;25.80;34.63;99592.59;10411156;28;20231;-66
2023/06/07 14:24:06;;;;;;;2.60;2.40;;;;;;;24.97;34.76;99607.31;10418334;28;20715;-67
2023/06/07 14:29:08;;;;;;;2.75;2.55;;;;;;;26.15;34.23;99537.63;10413655;28;20235;-66
2023/06/07 14:34:10;;;;;;;3.03;2.40;;;;;;;26.83;33.61;99508.91;10418640;28;20591;-67
2023/06/07 14:39:12;;;;;;;2.83;2.20;;;;;;;25.90;34.50;99574.41;10418627;28;20208;-66
2023/06/07 14:44:14;;;;;;;2.80;2.55;;;;;;;26.41;32.35;99521.63;10422592;28;20228;-66
2023/06/07 14:49:16;;;;;;;2.75;2.55;;;;;;;26.54;33.02;99507.16;10408625;28;20299;-66
2023/06/07 14:54:17;;;;;;;2.83;2.63;;;;;;;25.36;33.72;99579.91;10419764;28;20243;-66
2023/06/07 14:59:19;;;;;;;3.03;2.28;;;;;;;25.14;34.87;99607.72;10421581;28;20261;-67
2023/06/07 15:04:21;;;;;;;2.50;2.30;;;;;;;25.26;34.01;99589.03;10405574;28;20248;-68
2023/06/07 15:09:23;;;;;;;2.75;2.55;;;;;;;26.00;33.51;99575.09;10418682;28;20209;-66
2023/06/07 15:14:25;;;;;;;2.45;2.22;;;;;;;26.28;32.44;99542.38;10418787;28;20614;-67
2023/06/07 15:19:27;;;;;;;2.55;2.10;;;;;;;27.33;32.21;99497.34;10408679;28;20832;-67
2023/06/07 15:24:29;;;;;;;3.15;2.72;;;;;;;25.33;33.45;99569.53;10416411;28;20231;-66
2023/06/07 15:29:31;;;;;;;2.30;2.10;;;;;;;26.69;33.35;99510.78;10411622;28;20212;-67
2023/06/07 15:34:32;;;;;;;2.90;2.60;;;;;;;26.00;33.67;99566.88;10410578;28;20236;-66
2023/06/07 15:39:34;;;;;;;3.10;2.88;;;;;;;26.13;33.67;99562.59;10416227;28;20207;-67
2023/06/07 15:44:36;;;;;;;4.95;2.80;;;;;;;26.70;32.99;99526.94;10417057;28;20232;-72
2023/06/07 15:49:38;;;;;;;5.38;2.58;;;;;;;25.91;32.97;99570.56;10408509;28;20637;-72
2023/06/07 15:54:39;;;;;;;5.47;2.80;;;;;;;26.57;33.00;99541.44;10420944;28;20228;-70
2023/06/07 15:59:41;;;;;;;2.67;2.47;;;;;;;27.20;32.30;99492.63;10420276;28;20216;-70
2023/06/07 16:04:43;;;;;;;3.05;2.78;;;;;;;26.47;32.65;99550.63;10426567;28;20718;-72
2023/06/07 16:09:45;;;;;;;2.40;2.20;;;;;;;26.68;33.01;99542.06;10417431;28;20839;-70
2023/06/07 16:14:46;;;;;;;2.65;2.45;;;;;;;26.93;32.46;99536.19;10428203;28;20230;-70
2023/06/07 16:19:48;;;;;;;2.45;2.25;;;;;;;26.25;32.17;99575.91;10413780;28;20664;-71
2023/06/07 16:24:50;;;;;;;3.03;2.50;;;;;;;27.78;31.42;99482.97;10420023;28;20306;-70
2023/06/07 16:29:51;;;;;;;4.38;2.47;;;;;;;27.56;31.22;99490.00;10419395;28;20937;-70
2023/06/07 16:34:53;;;;;;;2.45;2.00;;;;;;;27.57;29.98;99504.56;10421751;28;20286;-70
2023/06/07 16:39:55;;;;;;;2.42;2.22;;;;;;;26.77;31.20;99534.81;10414210;28;20615;-70
2023/06/07 16:44:57;;;;;;;3.38;2.42;;;;;;;27.96;30.67;99473.78;10424031;28;20462;-71
2023/06/07 16:49:59;;;;;;;2.60;2.40;;;;;;;26.62;32.43;99540.53;10420112;28;20707;-70
2023/06/07 16:55:01;;;;;;;2.40;2.20;;;;;;;27.46;32.10;99465.47;10418928;28;20310;-72
2023/06/07 17:00:04;;;;;;;2.88;2.55;;;;;;;26.52;31.69;99536.03;10424219;28;20636;-70
2023/06/07 17:05:06;;;;;;;3.45;2.10;;;;;;;27.35;31.36;99491.53;10411029;28;20888;-71
2023/06/07 17:10:08;;;;;;;3.28;2.30;;;;;;;26.31;32.21;99584.88;10409163;28;20216;-71
2023/06/07 17:15:10;;;;;;;2.50;2.28;;;;;;;25.28;32.73;99605.16;10422022;28;20223;-70
2023/06/07 17:20:12;;;;;;;2.42;2.17;;;;;;;27.17;31.65;99505.00;10413016;28;20209;-72
2023/06/07 17:25:14;;;;;;;2.65;2.30;;;;;;;26.65;32.56;99534.44;10419934;28;20228;-70
2023/06/07 17:30:16;;;;;;;3.15;2.85;;;;;;;26.89;32.57;99504.97;10420915;28;20204;-71
2023/06/07 17:35:17;;;;;;;3.78;2.67;;;;;;;26.05;33.08;99562.41;10414712;28;20586;-70
2023/06/07 17:40:19;;;;;;;4.63;2.40;;;;;;;25.58;33.27;99582.13;10418060;28;20215;-70
2023/06/07 17:45:21;;;;;;;2.40;2.20;;;;;;;27.01;32.02;99522.88;10425474;28;20256;-70
2023/06/07 17:50:23;;;;;;;2.20;2.00;;;;;;;25.74;32.39;99582.00;10418856;28;20319;-70
2023/06/07 17:55:43;;;;;;;2.50;2.30;;;;;;;26.21;32.21;99572.06;10422757;28;20608;-71
2023/06/07 18:00:45;;;;;;;2.92;2.53;;;;;;;25.81;32.50;99594.25;10414174;28;20336;-71
2023/06/07 18:05:47;;;;;;;2.80;2.55;;;;;;;26.34;32.28;99565.91;10414183;28;20599;-71
2023/06/07 18:10:50;;;;;;;2.72;2.45;;;;;;;25.51;33.22;99580.84;10409101;28;20734;-71
2023/06/07 18:15:52;;;;;;;2.63;2.28;;;;;;;26.14;32.58;99558.72;10414963;28;20694;-71
2023/06/07 18:20:53;;;;;;;7.57;2.60;;;;;;;26.68;32.61;99537.41;10407982;28;20214;-70
2023/06/07 18:25:59;;;;;;;2.40;2.20;;;;;;;26.13;32.99;99568.09;10408897;28;20245;-69
2023/06/07 18:31:01;;;;;;;3.25;2.33;;;;;;;24.80;33.82;99585.81;10413566;28;20232;-70
2023/06/07 18:36:04;;;;;;;2.60;2.40;;;;;;;25.20;33.69;99594.81;10404873;28;20235;-71
2023/06/07 18:41:06;;;;;;;6.05;2.40;;;;;;;25.81;33.51;99571.47;10415064;28;20235;-71
2023/06/07 18:46:08;;;;;;;3.45;2.60;;;;;;;26.57;32.73;99535.94;10419870;28;20231;-70
2023/06/07 18:51:10;;;;;;;5.00;2.47;;;;;;;25.86;33.42;99554.16;10403368;28;20208;-69
2023/06/07 18:56:12;;;;;;;2.60;2.40;;;;;;;26.95;33.07;99517.47;10413508;28;20256;-69
2023/06/07 19:01:14;;;;;;;3.85;2.40;;;;;;;26.44;33.62;99531.22;10400108;28;20679;-71
2023/06/07 19:06:16;;;;;;;2.75;2.55;;;;;;;25.45;34.48;99602.00;10415238;28;20243;-69
2023/06/07 19:11:18;;;;;;;2.75;2.47;;;;;;;25.72;34.32;99584.22;10412664;28;20213;-71
2023/06/07 19:16:20;;;;;;;2.65;2.45;;;;;;;25.81;34.04;99577.81;10408407;28;20293;-71
2023/06/07 19:21:22;;;;;;;4.22;2.72;;;;;;;25.47;34.30;99600.59;10408123;28;20234;-69
2023/06/07 19:26:25;;;;;;;4.57;2.70;;;;;;;25.24;34.48;99585.75;10410378;28;20231;-71
2023/06/07 19:31:27;;;;;;;3.10;2.80;;;;;;;26.06;33.88;99580.50;10418631;28;20258;-69
2023/06/07 19:36:29;;;;;;;3.30;2.78;;;;;;;25.14;35.03;99607.72;10416847;28;20617;-70
2023/06/07 19:41:31;;;;;;;3.00;2.70;;;;;;;25.49;34.89;99605.81;10416147;28;20226;-71
2023/06/07 19:46:32;;;;;;;4.05;2.78;;;;;;;25.54;34.82;99604.91;10425177;28;20228;-71
2023/06/07 19:51:35;;;;;;;4.03;3.05;;;;;;;24.98;35.38;99630.84;10408926;28;20223;-71
2023/06/07 19:56:37;;;;;;;3.13;2.83;;;;;;;24.27;35.76;99649.28;10415048;28;20690;-70
2023/06/07 20:01:38;;;;;;;2.83;2.53;;;;;;;25.86;34.59;99578.84;10417850;28;20312;-73
2023/06/07 20:06:40;;;;;;;3.20;2.83;;;;;;;26.20;33.85;99593.22;10421442;28;20243;-73
2023/06/07 20:11:42;;;;;;;4.03;2.72;;;;;;;25.54;34.29;99616.72;10416570;28;20270;-70
2023/06/07 20:16:44;;;;;;;4.68;2.58;;;;;;;23.66;36.10;99678.38;10413832;28;20251;-70
2023/06/07 20:21:46;;;;;;;3.08;2.75;;;;;;;23.47;36.48;99685.47;10423249;28;20281;-73
2023/06/07 20:26:47;;;;;;;4.40;3.05;;;;;;;24.81;35.35;99626.56;10416918;28;20240;-69
2023/06/07 20:31:52;;;;;;;3.45;2.90;;;;;;;24.83;34.79;99638.06;10416457;28;20223;-70
2023/06/07 20:36:54;;;;;;;3.28;2.80;;;;;;;23.29;36.78;99687.63;10413673;28;20228;-69
2023/06/07 20:41:57;;;;;;;4.40;2.67;;;;;;;23.65;36.35;99660.34;10418099;28;20208;-70
2023/06/07 20:46:59;;;;;;;3.20;2.75;;;;;;;23.66;36.41;99683.84;10410869;28;20237;-70
2023/06/07 20:52:01;;;;;;;4.63;2.70;;;;;;;23.92;36.04;99660.03;10407818;28;20230;-69
2023/06/07 20:57:03;;;;;;;2.88;2.58;;;;;;;23.80;36.28;99670.44;10410116;28;20219;-70
2023/06/07 21:02:05;;;;;;;4.45;2.97;;;;;;;24.53;35.19;99641.78;10417676;28;20587;-70
2023/06/07 21:07:06;;;;;;;3.72;3.20;;;;;;;21.15;40.08;99702.50;10421690;28;20236;-70
2023/06/07 21:12:08;;;;;;;3.72;3.40;;;;;;;20.61;41.17;99703.25;10428423;28;20218;-72
2023/06/07 21:17:10;;;;;;;4.53;3.28;;;;;;;20.98;41.00;99699.91;10407017;28;20345;-71
2023/06/07 21:22:12;;;;;;;4.07;3.60;;;;;;;20.71;41.75;99702.56;10417252;28;20212;-71
2023/06/07 21:27:13;;;;;;;4.20;3.80;;;;;;;19.98;42.83;99695.34;10414923;28;20238;-73
2023/06/07 21:32:15;;;;;;;6.03;3.17;;;;;;;19.76;43.31;99703.44;10413229;28;20291;-71
2023/06/07 21:37:17;;;;;;;7.20;3.53;;;;;;;19.56;43.71;99704.75;10413314;28;20253;-71
2023/06/07 21:42:19;;;;;;;4.97;3.30;;;;;;;19.46;43.85;99698.31;10416728;28;20222;-72
2023/06/07 21:47:21;;;;;;;5.78;3.63;;;;;;;19.87;43.21;99705.25;10413618;28;20236;-68
2023/06/07 21:52:26;;;;;;;3.90;3.55;;;;;;;19.84;43.83;99718.47;10418482;28;20308;-69
2023/06/07 21:57:28;;;;;;;6.22;3.65;;;;;;;18.81;45.13;99724.75;10424143;28;20228;-67
2023/06/07 22:02:29;;;;;;;6.15;3.65;;;;;;;20.19;43.56;99699.19;10407827;28;20244;-67
2023/06/07 22:07:34;;;;;;;5.50;3.95;;;;;;;20.83;42.50;99695.97;10410742;28;20229;-67
2023/06/07 22:12:36;;;;;;;7.03;3.72;;;;;;;20.39;42.99;99741.31;10411714;28;20207;-67
2023/06/07 22:17:39;;;;;;;7.07;4.13;;;;;;;21.23;41.97;99715.66;10413923;28;20225;-67
2023/06/07 22:22:41;;;;;;;7.20;4.05;;;;;;;21.57;41.53;99723.59;10405549;28;20582;-67
2023/06/07 22:27:45;;;;;;;4.43;3.92;;;;;;;21.10;42.66;99729.66;10420762;28;20239;-67
2023/06/07 22:32:47;;;;;;;5.88;4.25;;;;;;;20.66;43.29;99757.69;10408393;28;20214;-68
2023/06/07 22:37:51;;;;;;;5.07;4.25;;;;;;;21.45;42.04;99717.53;10407495;28;20747;-67
2023/06/07 22:42:53;;;;;;;5.93;4.40;;;;;;;21.82;41.66;99714.00;10412289;28;20306;-68
2023/06/07 22:48:09;;;;;;;9.75;4.60;;;;;;;20.95;42.70;99731.16;10421690;28;20283;-68
2023/06/07 22:53:13;;;;;;;5.45;4.53;;;;;;;20.72;43.34;99724.06;10412118;28;20580;-68
2023/06/07 22:58:14;;;;;;;6.28;4.50;;;;;;;20.12;44.55;99750.13;10423652;28;20307;-68
2023/06/07 23:03:18;;;;;;;6.45;4.80;;;;;;;20.62;44.47;99711.16;10409240;28;20252;-68
2023/06/07 23:08:20;;;;;;;6.72;5.10;;;;;;;18.78;46.74;99745.06;10418507;28;20200;-68
2023/06/07 23:13:22;;;;;;;5.13;4.63;;;;;;;19.82;45.17;99748.59;10408806;28;20248;-66
2023/06/07 23:18:24;;;;;;;7.20;5.07;;;;;;;19.69;45.58;99740.78;10424320;28;20599;-68
2023/06/07 23:23:27;;;;;;;6.65;5.35;;;;;;;19.86;45.53;99738.88;10408654;28;20232;-67
2023/06/07 23:28:29;;;;;;;6.05;4.80;;;;;;;21.27;43.68;99678.66;10423771;28;20217;-68
2023/06/07 23:33:31;;;;;;;7.45;5.18;;;;;;;19.33;46.17;99746.41;10410925;28;20703;-67